createdAt,value
2019-04-10T00:01:45.458Z,72.90
2019-04-10T00:03:46.859Z,72.40
2019-04-10T00:05:48.616Z,72.10
2019-04-10T00:07:50.930Z,72.30
2019-04-10T00:09:52.329Z,72.00
2019-04-10T00:11:54.494Z,73.80
2019-04-10T00:13:55.945Z,72.90
2019-04-10T00:15:57.357Z,72.80
2019-04-10T00:17:59.763Z,72.70
2019-04-10T00:20:04.281Z,72.40
2019-04-10T00:22:06.285Z,74.10
2019-04-10T00:24:08.296Z,72.20
2019-04-10T00:26:09.953Z,72.10
2019-04-10T00:28:11.581Z,73.20
2019-04-10T00:30:13.213Z,73.00
2019-04-10T00:32:14.594Z,74.20
2019-04-10T00:34:16.017Z,73.00
2019-04-10T00:36:18.278Z,72.90
2019-04-10T00:38:19.849Z,72.50
2019-04-10T00:40:21.514Z,73.40
2019-04-10T00:42:23.221Z,73.70
2019-04-10T00:44:25.752Z,74.10
2019-04-10T00:46:28.323Z,72.00
2019-04-10T00:48:30.070Z,72.50
2019-04-10T00:50:32.799Z,72.60
2019-04-10T00:52:34.510Z,72.30
2019-04-10T00:54:35.858Z,71.70
2019-04-10T00:56:37.339Z,73.20
2019-04-10T00:58:39.527Z,73.90
2019-04-10T01:00:41.216Z,72.90
2019-04-10T01:02:42.943Z,73.50
2019-04-10T01:04:44.636Z,73.30
2019-04-10T01:06:46.318Z,73.30
2019-04-10T01:08:47.651Z,72.20
2019-04-10T01:10:48.789Z,73.80
2019-04-10T01:12:49.931Z,73.80
2019-04-10T01:14:51.088Z,74.40
2019-04-10T01:16:52.624Z,74.50
2019-04-10T01:18:53.782Z,72.90
2019-04-10T01:20:55.685Z,72.90
2019-04-10T01:22:57.318Z,73.40
2019-04-10T01:24:58.554Z,73.80
2019-04-10T01:27:00.053Z,72.20
2019-04-10T01:29:05.132Z,71.80
2019-04-10T01:31:06.763Z,72.00
2019-04-10T01:33:08.286Z,73.90
2019-04-10T01:35:09.956Z,72.90
2019-04-10T01:37:12.349Z,73.00
2019-04-10T01:39:22.248Z,73.70
2019-04-10T01:41:23.848Z,74.40
2019-04-10T01:43:25.164Z,73.50
2019-04-10T01:45:27.265Z,74.10
2019-04-10T01:47:28.927Z,73.50
2019-04-10T01:49:31.482Z,73.30
2019-04-10T01:51:33.347Z,73.10
2019-04-10T01:53:35.600Z,72.20
2019-04-10T01:55:37.106Z,72.40
2019-04-10T01:57:38.815Z,73.10
2019-04-10T01:59:40.832Z,73.40
2019-04-10T02:01:44.976Z,72.90
2019-04-10T02:03:46.584Z,73.30
2019-04-10T02:05:49.144Z,73.60
2019-04-10T02:08:01.147Z,73.80
2019-04-10T02:09:54.101Z,72.90
2019-04-10T02:11:56.454Z,73.30
2019-04-10T02:13:58.261Z,73.60
2019-04-10T02:16:00.691Z,74.70
2019-04-10T02:18:03.238Z,74.20
2019-04-10T02:20:07.081Z,74.40
2019-04-10T02:22:08.622Z,74.90
2019-04-10T02:24:09.916Z,74.10
2019-04-10T02:26:11.544Z,74.40
2019-04-10T02:28:13.162Z,75.40
2019-04-10T02:30:17.521Z,76.10
2019-04-10T02:32:18.952Z,76.00
2019-04-10T02:34:21.291Z,76.60
2019-04-10T02:36:23.534Z,76.50
2019-04-10T02:38:38.742Z,76.10
2019-04-10T02:40:28.900Z,76.80
2019-04-10T02:42:30.305Z,75.30
2019-04-10T02:44:33.006Z,76.30
2019-04-10T02:46:34.883Z,76.10
2019-04-10T02:48:36.136Z,75.80
2019-04-10T02:50:37.628Z,74.30
2019-04-10T02:52:41.144Z,74.20
2019-04-10T02:54:43.462Z,74.60
2019-04-10T02:56:46.510Z,74.70
2019-04-10T02:58:49.238Z,75.20
2019-04-10T03:00:52.538Z,75.00
2019-04-10T03:02:55.539Z,74.60
2019-04-10T03:04:59.235Z,75.20
2019-04-10T03:07:02.066Z,75.40
2019-04-10T03:11:16.962Z,75.30
2019-04-10T03:13:19.853Z,75.20
2019-04-10T03:15:21.322Z,75.60
2019-04-10T03:17:22.736Z,75.80
2019-04-10T03:19:24.082Z,75.30
2019-04-10T03:21:25.269Z,74.60
2019-04-10T03:23:26.425Z,74.80
2019-04-10T03:25:28.768Z,74.60
2019-04-10T03:27:30.396Z,74.40
2019-04-10T03:29:31.686Z,74.90
2019-04-10T03:31:34.468Z,74.90
2019-04-10T03:33:47.211Z,75.20
2019-04-10T03:35:49.566Z,75.40
2019-04-10T03:37:51.186Z,76.60
2019-04-10T03:39:53.250Z,76.00
2019-04-10T03:41:55.024Z,76.80
2019-04-10T03:43:56.421Z,76.50
2019-04-10T03:45:57.785Z,76.40
2019-04-10T03:48:00.005Z,75.90
2019-04-10T03:50:02.676Z,75.70
2019-04-10T03:52:05.072Z,75.40
2019-04-10T03:54:06.861Z,75.50
2019-04-10T03:56:08.043Z,76.90
2019-04-10T03:58:09.349Z,77.90
2019-04-10T04:00:12.027Z,77.40
2019-04-10T04:02:13.688Z,77.80
2019-04-10T04:04:15.445Z,78.30
2019-04-10T04:06:17.529Z,78.20
2019-04-10T04:08:19.357Z,78.40
2019-04-10T04:10:20.556Z,78.50
2019-04-10T04:12:22.352Z,78.80
2019-04-10T04:14:24.218Z,78.80
2019-04-10T04:16:26.787Z,78.70
2019-04-10T04:18:28.945Z,78.80
2019-04-10T04:20:30.965Z,78.60
2019-04-10T04:22:32.670Z,78.20
2019-04-10T04:24:34.070Z,78.60
2019-04-10T04:26:35.217Z,78.80
2019-04-10T04:28:36.345Z,78.80
2019-04-10T04:30:38.938Z,78.50
2019-04-10T04:32:40.280Z,79.10
2019-04-10T04:34:41.498Z,79.70
2019-04-10T04:36:43.141Z,79.50
2019-04-10T04:38:45.243Z,79.80
2019-04-10T04:40:46.994Z,81.00
2019-04-10T04:42:49.315Z,80.90
2019-04-10T04:44:50.677Z,80.70
2019-04-10T04:46:52.701Z,81.00
2019-04-10T04:48:54.297Z,81.30
2019-04-10T04:50:56.631Z,81.50
2019-04-10T04:52:58.230Z,81.40
2019-04-10T04:54:59.782Z,81.30
2019-04-10T04:57:04.541Z,80.90
2019-04-10T04:59:05.992Z,81.00
2019-04-10T05:01:07.544Z,81.10
2019-04-10T05:03:09.910Z,80.70
2019-04-10T05:05:11.505Z,81.10
2019-04-10T05:07:13.573Z,80.90
2019-04-10T05:09:27.314Z,80.60
2019-04-10T05:11:18.526Z,80.90
2019-04-10T05:13:20.163Z,81.30
2019-04-10T05:15:21.645Z,81.20
2019-04-10T05:17:22.867Z,80.20
2019-04-10T05:19:25.507Z,80.40
2019-04-10T05:21:27.371Z,80.20
2019-04-10T05:23:28.819Z,80.10
2019-04-10T05:25:30.178Z,80.50
2019-04-10T05:27:31.326Z,81.10
2019-04-10T05:29:32.483Z,81.90
2019-04-10T05:31:34.221Z,81.50
2019-04-10T05:33:36.727Z,82.20
2019-04-10T05:35:38.028Z,83.20
2019-04-10T05:37:40.071Z,82.30
2019-04-10T05:39:47.847Z,81.90
2019-04-10T05:41:44.507Z,82.30
2019-04-10T05:43:46.576Z,82.30
2019-04-10T05:45:48.621Z,82.50
2019-04-10T05:47:50.725Z,82.50
2019-04-10T05:49:53.273Z,82.00
2019-04-10T05:51:55.518Z,82.40
2019-04-10T05:53:57.971Z,82.20
2019-04-10T05:55:59.794Z,82.20
2019-04-10T05:58:01.657Z,81.80
2019-04-10T06:00:08.287Z,82.40
2019-04-10T06:02:09.737Z,82.40
2019-04-10T06:04:11.324Z,82.60
2019-04-10T06:06:12.618Z,82.50
2019-04-10T06:08:14.026Z,81.90
2019-04-10T06:10:15.506Z,81.20
2019-04-10T06:12:16.765Z,81.60
2019-04-10T06:14:18.006Z,80.80
2019-04-10T06:16:19.500Z,81.30
2019-04-10T06:18:20.847Z,81.30
2019-04-10T06:20:23.013Z,81.40
2019-04-10T06:22:24.284Z,82.00
2019-04-10T06:24:25.421Z,81.70
2019-04-10T06:26:27.895Z,81.60
2019-04-10T06:28:30.579Z,81.90
2019-04-10T06:30:32.349Z,82.60
2019-04-10T06:32:34.394Z,82.30
2019-04-10T06:34:36.407Z,82.90
2019-04-10T06:36:38.033Z,82.10
2019-04-10T06:38:39.422Z,82.20
2019-04-10T06:40:41.888Z,82.40
2019-04-10T06:42:48.581Z,82.30
2019-04-10T06:44:46.666Z,81.50
2019-04-10T06:46:48.606Z,81.70
2019-04-10T06:48:50.194Z,81.90
2019-04-10T06:50:51.344Z,82.10
2019-04-10T06:52:52.485Z,82.30
2019-04-10T06:54:54.105Z,82.70
2019-04-10T06:56:56.606Z,82.90
2019-04-10T06:58:58.329Z,82.50
2019-04-10T07:01:01.510Z,82.10
2019-04-10T07:03:03.107Z,81.60
2019-04-10T07:05:08.611Z,81.90
2019-04-10T07:07:12.644Z,81.70
2019-04-10T07:09:13.810Z,81.30
2019-04-10T07:11:18.055Z,81.30
2019-04-10T07:13:19.735Z,81.20
2019-04-10T07:15:23.641Z,81.70
2019-04-10T07:17:25.039Z,81.60
2019-04-10T07:19:26.602Z,81.00
2019-04-10T07:24:18.797Z,80.80
2019-04-10T07:26:33.272Z,81.30
2019-04-10T07:28:23.768Z,81.40
2019-04-10T07:30:26.535Z,81.00
2019-04-10T07:32:29.791Z,81.30
2019-04-10T07:34:32.034Z,81.00
2019-04-10T07:36:33.398Z,81.70
2019-04-10T07:38:35.047Z,81.20
2019-04-10T07:40:36.854Z,81.10
2019-04-10T07:42:41.326Z,80.60
2019-04-10T07:44:41.299Z,80.80
2019-04-10T07:46:42.450Z,80.20
2019-04-10T07:48:43.621Z,80.30
2019-04-10T07:50:46.760Z,80.20
2019-04-10T07:52:47.967Z,79.80
2019-04-10T07:54:50.319Z,79.90
2019-04-10T07:56:51.621Z,80.00
2019-04-10T07:58:53.753Z,79.60
2019-04-10T08:00:55.063Z,79.10
2019-04-10T08:02:57.472Z,79.00
2019-04-10T08:04:59.888Z,79.10
2019-04-10T08:07:01.412Z,78.30
2019-04-10T08:09:06.172Z,78.40
2019-04-10T08:11:07.431Z,78.30
2019-04-10T08:13:08.886Z,78.30
2019-04-10T08:15:11.140Z,78.90
2019-04-10T08:17:12.486Z,77.50
2019-04-10T08:19:14.603Z,77.20
2019-04-10T08:21:15.978Z,77.50
2019-04-10T08:23:17.566Z,77.30
2019-04-10T08:25:19.086Z,77.00
2019-04-10T08:27:21.325Z,76.80
2019-04-10T08:29:23.894Z,77.40
2019-04-10T08:31:25.681Z,77.30
2019-04-10T08:33:28.088Z,76.20
2019-04-10T08:35:29.925Z,77.10
2019-04-10T08:37:31.347Z,76.30
2019-04-10T08:39:40.461Z,76.20
2019-04-10T08:41:37.229Z,75.90
2019-04-10T08:43:39.659Z,75.70
2019-04-10T08:45:48.107Z,75.20
2019-04-10T08:47:44.228Z,75.40
2019-04-10T08:49:45.663Z,74.20
2019-04-10T08:51:47.911Z,74.20
2019-04-10T08:53:50.772Z,73.40
2019-04-10T08:55:52.603Z,73.50
2019-04-10T08:57:54.498Z,73.40
2019-04-10T08:59:56.214Z,72.50
2019-04-10T09:01:57.934Z,72.50
2019-04-10T09:03:59.485Z,73.30
2019-04-10T09:06:00.934Z,72.80
2019-04-10T09:08:02.516Z,72.20
2019-04-10T09:10:05.901Z,72.70
2019-04-10T09:12:07.582Z,72.60
2019-04-10T09:14:09.180Z,72.50
2019-04-10T09:16:10.403Z,72.30
2019-04-10T09:18:12.753Z,71.30
2019-04-10T09:20:14.247Z,71.00
2019-04-10T09:22:16.197Z,71.70
2019-04-10T09:24:17.503Z,70.60
2019-04-10T09:26:18.778Z,70.80
2019-04-10T09:28:20.220Z,69.20
2019-04-10T09:30:21.555Z,69.80
2019-04-10T09:32:22.819Z,68.60
2019-04-10T09:34:24.041Z,69.30
2019-04-10T09:36:25.187Z,68.90
2019-04-10T09:38:26.496Z,68.90
2019-04-10T09:40:28.206Z,68.80
2019-04-10T09:42:29.352Z,68.40
2019-04-10T09:44:30.508Z,68.30
2019-04-10T09:46:31.650Z,68.20
2019-04-10T09:48:33.756Z,68.30
2019-04-10T09:50:35.417Z,66.90
2019-04-10T09:52:37.620Z,67.70
2019-04-10T09:54:38.762Z,67.00
2019-04-10T09:56:40.269Z,66.50
2019-04-10T09:58:42.528Z,65.90
2019-04-10T10:00:44.048Z,65.00
2019-04-10T10:02:45.304Z,65.50
2019-04-10T10:04:46.552Z,65.90
2019-04-10T10:06:47.723Z,65.20
2019-04-10T10:08:50.104Z,65.40
2019-04-10T10:10:51.514Z,63.50
2019-04-10T10:12:52.714Z,64.60
2019-04-10T10:14:54.317Z,64.00
2019-04-10T10:16:55.986Z,64.00
2019-04-10T10:18:57.480Z,62.40
2019-04-10T10:20:59.869Z,62.20
2019-04-10T10:23:01.407Z,62.70
2019-04-10T10:25:05.079Z,62.80
2019-04-10T10:27:07.303Z,62.70
2019-04-10T10:29:09.233Z,63.40
2019-04-10T10:31:11.573Z,62.70
2019-04-10T10:33:13.391Z,60.40
2019-04-10T10:35:14.934Z,60.00
2019-04-10T10:37:16.653Z,60.00
2019-04-10T10:39:19.135Z,59.80
2019-04-10T10:41:20.495Z,59.90
2019-04-10T10:43:22.552Z,60.30
2019-04-10T10:45:24.978Z,61.30
2019-04-10T10:47:26.482Z,60.80
2019-04-10T10:49:28.574Z,60.60
2019-04-10T10:51:30.821Z,59.60
2019-04-10T10:53:32.938Z,59.70
2019-04-10T10:55:34.107Z,60.10
2019-04-10T10:57:35.562Z,60.10
2019-04-10T10:59:37.649Z,60.50
2019-04-10T11:01:39.999Z,59.40
2019-04-10T11:03:42.452Z,60.00
2019-04-10T11:05:44.519Z,59.80
2019-04-10T11:07:47.079Z,59.30
2019-04-10T11:09:49.014Z,58.60
2019-04-10T11:11:50.749Z,57.10
2019-04-10T11:13:55.088Z,57.60
2019-04-10T11:15:56.843Z,57.80
2019-04-10T11:17:58.456Z,58.40
2019-04-10T11:20:00.165Z,57.10
2019-04-10T11:22:05.012Z,56.60
2019-04-10T11:24:06.998Z,56.60
2019-04-10T11:26:30.254Z,57.40
2019-04-10T11:28:33.677Z,56.00
2019-04-10T11:30:36.277Z,56.50
2019-04-10T11:32:38.228Z,55.50
2019-04-10T11:34:40.784Z,54.70
2019-04-10T11:36:42.917Z,55.60
2019-04-10T11:38:46.486Z,55.20
2019-04-10T11:40:49.551Z,57.10
2019-04-10T11:42:51.488Z,56.30
2019-04-10T11:44:55.061Z,56.40
2019-04-10T11:46:58.589Z,56.40
2019-04-10T11:49:00.861Z,54.10
2019-04-10T11:51:16.375Z,55.10
2019-04-10T11:53:19.056Z,55.20
2019-04-10T11:55:25.352Z,55.10
2019-04-10T11:57:23.410Z,53.50
2019-04-10T11:59:26.249Z,53.80
2019-04-10T12:01:28.609Z,54.30
2019-04-10T12:03:32.143Z,55.20
2019-04-10T12:05:36.689Z,54.60
2019-04-10T12:08:01.901Z,52.60
2019-04-10T12:11:44.722Z,52.90
2019-04-10T12:13:46.231Z,51.50
2019-04-10T12:15:48.394Z,51.30
2019-04-10T12:17:49.926Z,50.00
2019-04-10T12:19:52.090Z,49.90
2019-04-10T12:21:53.856Z,48.80
2019-04-10T12:23:54.928Z,47.50
2019-04-10T12:25:56.064Z,47.00
2019-04-10T12:27:57.809Z,46.00
2019-04-10T12:29:59.257Z,45.90
2019-04-10T12:32:00.844Z,45.80
2019-04-10T12:34:03.207Z,45.60
2019-04-10T12:36:06.653Z,46.50
2019-04-10T12:38:10.447Z,46.40
2019-04-10T12:40:11.850Z,46.90
2019-04-10T12:42:14.185Z,46.70
2019-04-10T12:44:15.852Z,46.20
2019-04-10T12:46:17.762Z,44.50
2019-04-10T12:48:19.048Z,44.60
2019-04-10T12:50:20.431Z,44.10
2019-04-10T12:52:22.746Z,43.80
2019-04-10T12:54:25.722Z,45.30
2019-04-10T12:56:26.999Z,44.30
2019-04-10T12:58:28.880Z,43.80
2019-04-10T13:00:30.457Z,43.70
2019-04-10T13:02:31.762Z,42.30
2019-04-10T13:04:33.339Z,41.60
2019-04-10T13:06:34.869Z,41.60
2019-04-10T13:08:54.679Z,41.00
2019-04-10T13:10:39.889Z,40.40
2019-04-10T13:12:41.737Z,40.00
2019-04-10T13:14:43.154Z,39.90
2019-04-10T13:16:44.679Z,39.20
2019-04-10T13:18:46.842Z,38.30
2019-04-10T13:20:48.337Z,38.70
2019-04-10T13:22:50.562Z,38.20
2019-04-10T13:24:52.152Z,38.00
2019-04-10T13:26:55.049Z,38.30
2019-04-10T13:28:56.473Z,37.60
2019-04-10T13:30:58.448Z,37.40
2019-04-10T13:33:00.754Z,37.10
2019-04-10T13:35:05.933Z,38.00
2019-04-10T13:37:08.332Z,39.30
2019-04-10T13:39:13.136Z,40.80
2019-04-10T13:41:14.447Z,40.70
2019-04-10T13:43:15.976Z,40.40
2019-04-10T13:45:17.640Z,41.50
2019-04-10T13:47:19.610Z,39.90
2019-04-10T13:49:21.914Z,38.20
2019-04-10T13:51:23.443Z,38.90
2019-04-10T13:53:25.929Z,37.00
2019-04-10T13:55:28.452Z,37.00
2019-04-10T13:57:30.614Z,37.50
2019-04-10T13:59:33.112Z,37.90
2019-04-10T14:01:35.699Z,38.80
2019-04-10T14:03:37.095Z,40.20
2019-04-10T14:05:39.073Z,37.90
2019-04-10T14:07:40.386Z,37.80
2019-04-10T14:09:47.150Z,37.80
2019-04-10T14:11:45.678Z,37.30
2019-04-10T14:13:46.917Z,36.90
2019-04-10T14:15:48.482Z,37.30
2019-04-10T14:17:50.081Z,37.00
2019-04-10T14:19:51.972Z,35.40
2019-04-10T14:21:53.563Z,35.90
2019-04-10T14:23:55.593Z,34.60
2019-04-10T14:26:00.579Z,33.90
2019-04-10T14:28:02.804Z,34.80
2019-04-10T14:30:09.126Z,34.00
2019-04-10T14:32:13.293Z,34.30
2019-04-10T14:34:15.786Z,33.10
2019-04-10T14:36:18.036Z,32.50
2019-04-10T14:38:19.449Z,33.20
2019-04-10T14:40:22.071Z,33.20
2019-04-10T14:42:24.447Z,33.30
2019-04-10T14:44:25.822Z,32.40
2019-04-10T14:46:26.957Z,33.80
2019-04-10T14:48:28.142Z,32.30
2019-04-10T14:50:29.576Z,32.00
2019-04-10T14:52:31.054Z,31.50
2019-04-10T14:54:32.207Z,30.70
2019-04-10T14:56:34.468Z,31.10
2019-04-10T14:58:36.880Z,31.00
2019-04-10T15:00:41.152Z,32.40
2019-04-10T15:02:43.071Z,31.40
2019-04-10T15:04:44.254Z,29.90
2019-04-10T15:06:45.829Z,31.00
2019-04-10T15:08:48.821Z,31.90
2019-04-10T15:10:50.190Z,32.10
2019-04-10T15:12:51.673Z,32.50
2019-04-10T15:14:54.064Z,30.50
2019-04-10T15:17:02.844Z,31.80
2019-04-10T15:19:00.304Z,30.70
2019-04-10T15:21:02.703Z,29.80
2019-04-10T15:23:05.021Z,29.90
2019-04-10T15:25:06.871Z,30.80
2019-04-10T15:27:08.931Z,30.50
2019-04-10T15:29:10.650Z,30.60
2019-04-10T15:31:11.737Z,29.50
2019-04-10T15:33:14.118Z,30.10
2019-04-10T15:35:15.980Z,30.70
2019-04-10T15:37:17.302Z,31.60
2019-04-10T15:39:25.789Z,31.70
2019-04-10T15:41:21.497Z,31.10
2019-04-10T15:43:23.971Z,30.60
2019-04-10T15:45:26.077Z,30.90
2019-04-10T15:47:27.700Z,30.00
2019-04-10T15:49:30.641Z,30.00
2019-04-10T15:51:32.126Z,30.40
2019-04-10T15:53:34.486Z,29.80
2019-04-10T15:55:35.991Z,29.70
2019-04-10T15:57:47.721Z,31.00
2019-04-10T15:59:40.705Z,30.60
2019-04-10T16:01:43.399Z,29.90
2019-04-10T16:03:45.044Z,30.70
2019-04-10T16:05:46.182Z,30.00
2019-04-10T16:07:47.318Z,30.00
2019-04-10T16:09:52.013Z,31.60
2019-04-10T16:12:10.159Z,31.10
2019-04-10T16:14:20.870Z,31.50
2019-04-10T16:16:35.203Z,31.00
2019-04-10T16:18:36.687Z,32.90
2019-04-10T16:20:38.910Z,30.40
2019-04-10T16:22:42.656Z,30.00
2019-04-10T16:24:45.031Z,30.10
2019-04-10T16:26:47.288Z,30.00
2019-04-10T16:28:48.752Z,29.70
2019-04-10T16:30:50.770Z,29.90
2019-04-10T16:32:52.503Z,30.10
2019-04-10T16:34:54.636Z,29.70
2019-04-10T16:36:56.023Z,31.00
2019-04-10T16:38:57.439Z,30.20
2019-04-10T16:40:58.679Z,31.40
2019-04-10T16:42:59.962Z,31.80
2019-04-10T16:45:01.791Z,31.40
2019-04-10T16:47:03.764Z,30.90
2019-04-10T16:49:04.957Z,32.60
2019-04-10T16:51:06.278Z,33.50
2019-04-10T16:53:07.599Z,33.00
2019-04-10T16:55:10.826Z,33.10
2019-04-10T16:57:14.773Z,34.00
2019-04-10T16:59:16.335Z,33.60
2019-04-10T17:01:18.193Z,33.10
2019-04-10T17:03:19.808Z,32.20
2019-04-10T17:05:21.053Z,34.20
2019-04-10T17:07:23.093Z,36.50
2019-04-10T17:09:26.931Z,35.40
2019-04-10T17:11:29.156Z,36.90
2019-04-10T17:13:32.600Z,36.80
2019-04-10T17:15:34.464Z,39.00
2019-04-10T17:17:36.641Z,40.10
2019-04-10T17:19:46.640Z,41.30
2019-04-10T17:21:42.474Z,41.90
2019-04-10T17:23:44.869Z,42.60
2019-04-10T17:25:46.593Z,43.90
2019-04-10T17:27:47.988Z,42.60
2019-04-10T17:30:09.593Z,44.40
2019-04-10T17:32:11.094Z,44.70
2019-04-10T17:34:12.412Z,44.90
2019-04-10T17:36:13.934Z,46.80
2019-04-10T17:38:15.331Z,46.90
2019-04-10T17:40:28.854Z,47.00
2019-04-10T17:42:20.008Z,47.40
2019-04-10T17:44:21.374Z,48.20
2019-04-10T17:46:22.888Z,47.50
2019-04-10T17:48:25.656Z,46.20
2019-04-10T17:50:27.999Z,48.50
2019-04-10T17:52:29.361Z,48.20
2019-04-10T17:54:31.393Z,49.70
2019-04-10T17:56:32.769Z,48.80
2019-04-10T17:58:33.905Z,50.40
2019-04-10T18:00:37.684Z,50.20
2019-04-10T18:02:39.115Z,51.60
2019-04-10T18:04:40.250Z,52.20
2019-04-10T18:06:44.243Z,52.40
2019-04-10T18:08:45.259Z,52.10
2019-04-10T18:10:49.891Z,52.80
2019-04-10T18:12:49.738Z,52.70
2019-04-10T18:14:51.401Z,53.30
2019-04-10T18:16:54.012Z,53.50
2019-04-10T18:18:55.943Z,52.80
2019-04-10T18:20:58.176Z,53.60
2019-04-10T18:23:00.827Z,53.50
2019-04-10T18:25:05.458Z,53.60
2019-04-10T18:27:07.932Z,52.90
2019-04-10T18:29:09.985Z,54.40
2019-04-10T18:31:12.437Z,55.00
2019-04-10T18:33:14.186Z,55.10
2019-04-10T18:35:16.399Z,55.70
2019-04-10T18:37:22.062Z,55.40
2019-04-10T18:39:21.909Z,55.30
2019-04-10T18:41:24.137Z,55.90
2019-04-10T18:43:25.924Z,55.80
2019-04-10T18:45:28.254Z,56.10
2019-04-10T18:47:32.042Z,56.60
2019-04-10T18:49:33.484Z,56.30
2019-04-10T18:51:36.016Z,55.70
2019-04-10T18:53:37.646Z,56.80
2019-04-10T18:55:39.213Z,56.60
2019-04-10T18:57:41.071Z,57.70
2019-04-10T19:00:02.489Z,57.70
2019-04-10T19:02:17.921Z,58.40
2019-04-10T19:04:21.049Z,57.10
2019-04-10T19:06:24.762Z,57.70
2019-04-10T19:08:26.135Z,57.80
2019-04-10T19:10:28.677Z,57.90
2019-04-10T19:12:30.792Z,57.40
2019-04-10T19:14:36.469Z,58.10
2019-04-10T19:16:35.645Z,57.90
2019-04-10T19:18:37.525Z,58.70
2019-04-10T19:20:38.978Z,59.00
2019-04-10T19:22:40.226Z,58.10
2019-04-10T19:24:41.720Z,58.80
2019-04-10T19:26:43.302Z,58.80
2019-04-10T19:28:46.450Z,58.40
2019-04-10T19:30:49.471Z,58.30
2019-04-10T19:32:50.617Z,59.30
2019-04-10T19:34:52.153Z,59.90
2019-04-10T19:36:54.368Z,59.60
2019-04-10T19:38:55.935Z,60.60
2019-04-10T19:40:58.354Z,59.20
2019-04-10T19:43:00.002Z,59.50
2019-04-10T19:45:01.718Z,58.90
2019-04-10T19:47:04.100Z,59.50
2019-04-10T19:49:06.056Z,60.50
2019-04-10T19:51:07.960Z,59.90
2019-04-10T19:53:09.326Z,61.80
2019-04-10T19:55:11.483Z,60.50
2019-04-10T19:57:13.095Z,61.40
2019-04-10T19:59:14.618Z,60.40
2019-04-10T20:01:16.831Z,62.40
2019-04-10T20:03:19.459Z,60.80
2019-04-10T20:05:21.168Z,60.10
2019-04-10T20:07:22.849Z,59.70
2019-04-10T20:09:24.273Z,61.60
2019-04-10T20:11:35.649Z,60.90
2019-04-10T20:13:30.352Z,60.70
2019-04-10T20:15:31.618Z,62.20
2019-04-10T20:17:32.767Z,61.30
2019-04-10T20:19:34.866Z,60.20
2019-04-10T20:21:36.500Z,61.30
2019-04-10T20:23:38.315Z,61.40
2019-04-10T20:25:40.729Z,61.00
2019-04-10T20:27:42.506Z,60.00
2019-04-10T20:29:45.226Z,61.60
2019-04-10T20:31:47.839Z,61.50
2019-04-10T20:33:49.315Z,62.70
2019-04-10T20:35:50.870Z,62.60
2019-04-10T20:37:53.267Z,60.90
2019-04-10T20:39:55.757Z,63.70
2019-04-10T20:41:59.343Z,63.90
2019-04-10T20:44:00.279Z,62.10
2019-04-10T20:46:03.823Z,61.70
2019-04-10T20:48:06.566Z,61.50
2019-04-10T20:50:08.151Z,61.50
2019-04-10T20:52:10.408Z,63.10
2019-04-10T20:54:12.747Z,62.40
2019-04-10T20:56:15.833Z,62.30
2019-04-10T20:58:18.670Z,62.30
2019-04-10T21:00:22.417Z,62.70
2019-04-10T21:02:24.410Z,63.10
2019-04-10T21:04:25.622Z,62.50
2019-04-10T21:06:27.065Z,62.70
2019-04-10T21:08:28.242Z,63.70
2019-04-10T21:10:29.541Z,63.70
2019-04-10T21:12:30.694Z,63.70
2019-04-10T21:14:31.855Z,63.50
2019-04-10T21:16:33.634Z,63.20
2019-04-10T21:18:35.612Z,63.10
2019-04-10T21:20:37.582Z,62.30
2019-04-10T21:22:38.950Z,62.00
2019-04-10T21:24:41.235Z,61.60
2019-04-10T21:26:42.456Z,60.90
2019-04-10T21:28:43.811Z,60.30
2019-04-10T21:30:59.241Z,59.90
2019-04-10T21:33:03.738Z,60.00
2019-04-10T21:35:07.666Z,60.10
2019-04-10T21:37:09.887Z,60.00
2019-04-10T21:39:12.348Z,61.60
2019-04-10T21:41:15.592Z,61.80
2019-04-10T21:43:18.535Z,62.70
2019-04-10T21:45:20.874Z,63.30
2019-04-10T21:47:23.377Z,64.50
2019-04-10T21:49:26.063Z,64.30
2019-04-10T21:51:28.499Z,64.10
2019-04-10T21:53:31.739Z,63.70
2019-04-10T21:55:33.253Z,63.00
2019-04-10T21:57:34.541Z,62.60
2019-04-10T21:59:36.642Z,63.60
2019-04-10T22:01:40.080Z,64.10
2019-04-10T22:03:41.553Z,64.20
2019-04-10T22:05:44.705Z,64.50
2019-04-10T22:07:48.262Z,64.30
2019-04-10T22:10:07.747Z,64.00
2019-04-10T22:12:21.992Z,63.90
2019-04-10T22:14:15.065Z,63.60
2019-04-10T22:16:17.866Z,64.00
2019-04-10T22:18:19.562Z,64.20
2019-04-10T22:20:20.802Z,65.80
2019-04-10T22:22:22.482Z,66.10
2019-04-10T22:24:23.893Z,66.40
2019-04-10T22:26:25.583Z,66.60
2019-04-10T22:28:26.997Z,66.20
2019-04-10T22:30:28.127Z,65.80
2019-04-10T22:32:29.518Z,65.10
2019-04-10T22:34:30.678Z,64.50
2019-04-10T22:36:31.841Z,64.00
2019-04-10T22:38:33.506Z,63.80
2019-04-10T22:40:34.615Z,63.60
2019-04-10T22:42:42.984Z,63.60
2019-04-10T22:44:43.831Z,64.20
2019-04-10T22:46:42.579Z,65.50
2019-04-10T22:48:44.130Z,66.30
2019-04-10T22:50:45.297Z,67.40
2019-04-10T22:52:46.605Z,68.00
2019-04-10T22:54:48.158Z,68.60
2019-04-10T22:56:50.021Z,68.60
2019-04-10T22:58:51.248Z,68.80
2019-04-10T23:00:52.397Z,69.20
2019-04-10T23:02:53.613Z,69.10
2019-04-10T23:04:55.648Z,68.50
2019-04-10T23:06:57.686Z,68.60
2019-04-10T23:09:00.095Z,68.00
2019-04-10T23:11:01.677Z,69.30
2019-04-10T23:13:05.359Z,70.00
2019-04-10T23:15:09.271Z,70.00
2019-04-10T23:17:10.735Z,69.80
2019-04-10T23:19:12.385Z,69.60
2019-04-10T23:21:14.493Z,70.30
2019-04-10T23:23:16.812Z,70.40
2019-04-10T23:25:18.350Z,70.80
2019-04-10T23:27:19.895Z,71.80
2019-04-10T23:29:22.271Z,71.70
2019-04-10T23:31:23.751Z,72.30
2019-04-10T23:33:25.999Z,73.60
2019-04-10T23:35:27.639Z,72.80
2019-04-10T23:37:29.214Z,72.30
2019-04-10T23:39:30.634Z,71.60
2019-04-10T23:41:31.798Z,70.50
2019-04-10T23:43:33.048Z,70.10
2019-04-10T23:45:34.632Z,69.30
2019-04-10T23:47:36.069Z,68.60
2019-04-10T23:49:37.452Z,68.10
2019-04-10T23:51:39.129Z,68.00
2019-04-10T23:53:40.490Z,67.60
2019-04-10T23:55:41.924Z,68.60
2019-04-10T23:57:43.414Z,69.70
2019-04-10T23:59:44.681Z,70.20
